sensor_id;sensor_type;location;lat;lon;timestamp;pressure;altitude;pressure_sealevel;temperature;humidity
71195;BME280;58908;51.426;7.714;2023-11-19T00:01:14;99114.97;;;9.43;100.00
71195;BME280;58908;51.426;7.714;2023-11-19T00:03:41;99113.75;;;9.48;100.00
71195;BME280;58908;51.426;7.714;2023-11-19T00:06:07;99100.56;;;9.48;100.00
71195;BME280;58908;51.426;7.714;2023-11-19T00:08:37;99093.50;;;9.48;100.00
71195;BME280;58908;51.426;7.714;2023-11-19T00:11:04;99084.28;;;9.55;100.00
71195;BME280;58908;51.426;7.714;2023-11-19T00:13:30;99078.06;;;9.56;100.00
71195;BME280;58908;51.426;7.714;2023-11-19T00:15:56;99074.63;;;9.56;100.00
71195;BME280;58908;51.426;7.714;2023-11-19T00:18:23;99070.19;;;9.56;100.00
71195;BME280;58908;51.426;7.714;2023-11-19T00:20:49;99072.81;;;9.56;100.00
71195;BME280;58908;51.426;7.714;2023-11-19T00:23:15;99063.16;;;9.57;100.00
71195;BME280;58908;51.426;7.714;2023-11-19T00:25:43;99045.47;;;9.71;100.00
71195;BME280;58908;51.426;7.714;2023-11-19T00:28:09;99050.47;;;9.76;100.00
71195;BME280;58908;51.426;7.714;2023-11-19T00:30:36;99063.25;;;9.82;100.00
71195;BME280;58908;51.426;7.714;2023-11-19T00:33:02;99059.56;;;9.84;100.00
71195;BME280;58908;51.426;7.714;2023-11-19T00:35:28;99068.22;;;9.86;100.00
71195;BME280;58908;51.426;7.714;2023-11-19T00:37:56;99063.91;;;9.85;100.00
71195;BME280;58908;51.426;7.714;2023-11-19T00:40:23;99080.03;;;9.93;100.00
71195;BME280;58908;51.426;7.714;2023-11-19T00:42:50;99087.94;;;9.93;100.00
71195;BME280;58908;51.426;7.714;2023-11-19T00:45:17;99074.88;;;9.92;100.00
71195;BME280;58908;51.426;7.714;2023-11-19T00:47:43;99076.47;;;9.94;100.00
71195;BME280;58908;51.426;7.714;2023-11-19T00:50:09;99072.03;;;9.95;100.00
71195;BME280;58908;51.426;7.714;2023-11-19T00:52:36;99077.00;;;9.99;100.00
71195;BME280;58908;51.426;7.714;2023-11-19T00:55:03;99074.00;;;10.05;100.00
71195;BME280;58908;51.426;7.714;2023-11-19T00:57:29;99088.75;;;10.08;100.00
71195;BME280;58908;51.426;7.714;2023-11-19T00:59:57;99075.06;;;10.15;100.00
71195;BME280;58908;51.426;7.714;2023-11-19T01:02:23;99067.28;;;10.26;100.00
71195;BME280;58908;51.426;7.714;2023-11-19T01:04:50;99074.06;;;10.30;100.00
71195;BME280;58908;51.426;7.714;2023-11-19T01:07:17;99066.47;;;10.38;100.00
71195;BME280;58908;51.426;7.714;2023-11-19T01:09:43;99063.13;;;10.49;100.00
71195;BME280;58908;51.426;7.714;2023-11-19T01:12:09;99071.03;;;10.49;100.00
71195;BME280;58908;51.426;7.714;2023-11-19T01:14:36;99062.69;;;10.55;100.00
71195;BME280;58908;51.426;7.714;2023-11-19T01:17:04;99049.50;;;10.55;100.00
71195;BME280;58908;51.426;7.714;2023-11-19T01:19:30;99051.31;;;10.54;100.00
71195;BME280;58908;51.426;7.714;2023-11-19T01:21:57;99045.00;;;10.57;100.00
71195;BME280;58908;51.426;7.714;2023-11-19T01:24:23;99052.59;;;10.61;100.00
71195;BME280;58908;51.426;7.714;2023-11-19T01:26:50;99043.75;;;10.62;100.00
71195;BME280;58908;51.426;7.714;2023-11-19T01:29:16;99057.13;;;10.72;100.00
71195;BME280;58908;51.426;7.714;2023-11-19T01:31:44;99051.84;;;10.72;100.00
71195;BME280;58908;51.426;7.714;2023-11-19T01:34:12;99049.22;;;10.72;100.00
71195;BME280;58908;51.426;7.714;2023-11-19T01:36:39;99051.84;;;10.72;100.00
71195;BME280;58908;51.426;7.714;2023-11-19T01:39:05;99042.75;;;10.76;100.00
71195;BME280;58908;51.426;7.714;2023-11-19T01:41:33;99054.09;;;10.78;100.00
71195;BME280;58908;51.426;7.714;2023-11-19T01:44:00;99053.31;;;10.76;100.00
71195;BME280;58908;51.426;7.714;2023-11-19T01:46:26;99063.13;;;10.74;100.00
71195;BME280;58908;51.426;7.714;2023-11-19T01:48:52;99054.50;;;10.72;100.00
71195;BME280;58908;51.426;7.714;2023-11-19T01:51:20;99059.03;;;10.70;100.00
71195;BME280;58908;51.426;7.714;2023-11-19T01:53:47;99046.97;;;10.66;100.00
71195;BME280;58908;51.426;7.714;2023-11-19T01:56:14;99025.16;;;10.64;100.00
71195;BME280;58908;51.426;7.714;2023-11-19T01:58:40;99017.25;;;10.64;100.00
71195;BME280;58908;51.426;7.714;2023-11-19T02:01:07;99012.28;;;10.59;100.00
71195;BME280;58908;51.426;7.714;2023-11-19T02:03:34;99007.22;;;10.56;100.00
71195;BME280;58908;51.426;7.714;2023-11-19T02:06:01;99015.03;;;10.58;100.00
71195;BME280;58908;51.426;7.714;2023-11-19T02:08:29;99017.88;;;10.55;100.00
71195;BME280;58908;51.426;7.714;2023-11-19T02:10:55;99003.75;;;10.56;100.00
71195;BME280;58908;51.426;7.714;2023-11-19T02:13:22;99003.31;;;10.62;100.00
71195;BME280;58908;51.426;7.714;2023-11-19T02:15:50;98994.88;;;10.69;100.00
71195;BME280;58908;51.426;7.714;2023-11-19T02:18:19;98999.50;;;10.66;100.00
71195;BME280;58908;51.426;7.714;2023-11-19T02:20:46;99002.16;;;10.66;100.00
71195;BME280;58908;51.426;7.714;2023-11-19T02:23:13;98994.78;;;10.71;100.00
71195;BME280;58908;51.426;7.714;2023-11-19T02:25:41;99006.69;;;10.64;100.00
71195;BME280;58908;51.426;7.714;2023-11-19T02:28:09;99003.41;;;10.60;100.00
71195;BME280;58908;51.426;7.714;2023-11-19T02:30:37;99005.00;;;10.63;100.00
71195;BME280;58908;51.426;7.714;2023-11-19T02:33:03;99012.09;;;10.62;100.00
71195;BME280;58908;51.426;7.714;2023-11-19T02:35:30;99007.31;;;10.67;100.00
71195;BME280;58908;51.426;7.714;2023-11-19T02:37:58;99001.22;;;10.67;100.00
71195;BME280;58908;51.426;7.714;2023-11-19T02:40:24;98991.59;;;10.66;100.00
71195;BME280;58908;51.426;7.714;2023-11-19T02:42:51;98973.03;;;10.67;100.00
71195;BME280;58908;51.426;7.714;2023-11-19T02:45:19;98955.31;;;10.69;100.00
71195;BME280;58908;51.426;7.714;2023-11-19T02:47:47;98946.56;;;10.69;100.00
71195;BME280;58908;51.426;7.714;2023-11-19T02:50:13;98956.03;;;10.71;100.00
71195;BME280;58908;51.426;7.714;2023-11-19T02:52:40;98962.25;;;10.70;100.00
71195;BME280;58908;51.426;7.714;2023-11-19T02:55:07;98955.31;;;10.69;100.00
71195;BME280;58908;51.426;7.714;2023-11-19T02:57:37;98961.44;;;10.70;100.00
71195;BME280;58908;51.426;7.714;2023-11-19T03:00:04;98957.94;;;10.69;100.00
71195;BME280;58908;51.426;7.714;2023-11-19T03:02:40;98964.81;;;10.72;100.00
71195;BME280;58908;51.426;7.714;2023-11-19T03:05:10;98957.53;;;10.75;100.00
71195;BME280;58908;51.426;7.714;2023-11-19T03:07:37;98956.78;;;10.73;100.00
71195;BME280;58908;51.426;7.714;2023-11-19T03:10:03;98956.25;;;10.81;100.00
71195;BME280;58908;51.426;7.714;2023-11-19T03:12:30;98945.69;;;10.81;100.00
71195;BME280;58908;51.426;7.714;2023-11-19T03:14:57;98940.81;;;10.87;100.00
71195;BME280;58908;51.426;7.714;2023-11-19T03:17:23;98934.59;;;10.88;100.00
71195;BME280;58908;51.426;7.714;2023-11-19T03:19:51;98929.81;;;10.93;100.00
71195;BME280;58908;51.426;7.714;2023-11-19T03:22:17;98928.13;;;10.92;100.00
71195;BME280;58908;51.426;7.714;2023-11-19T03:24:44;98931.94;;;11.01;100.00
71195;BME280;58908;51.426;7.714;2023-11-19T03:27:10;98930.75;;;11.05;100.00
71195;BME280;58908;51.426;7.714;2023-11-19T03:29:36;98934.97;;;11.07;100.00
71195;BME280;58908;51.426;7.714;2023-11-19T03:32:03;98928.28;;;11.14;100.00
71195;BME280;58908;51.426;7.714;2023-11-19T03:34:30;98924.81;;;11.14;100.00
71195;BME280;58908;51.426;7.714;2023-11-19T03:36:57;98914.47;;;11.11;100.00
71195;BME280;58908;51.426;7.714;2023-11-19T03:39:24;98909.94;;;11.13;100.00
71195;BME280;58908;51.426;7.714;2023-11-19T03:41:52;98910.34;;;11.19;100.00
71195;BME280;58908;51.426;7.714;2023-11-19T03:44:18;98910.59;;;11.27;100.00
71195;BME280;58908;51.426;7.714;2023-11-19T03:46:45;98918.50;;;11.27;100.00
71195;BME280;58908;51.426;7.714;2023-11-19T03:49:11;98916.22;;;11.23;100.00
71195;BME280;58908;51.426;7.714;2023-11-19T03:51:38;98917.91;;;11.24;100.00
71195;BME280;58908;51.426;7.714;2023-11-19T03:54:06;98922.00;;;11.28;100.00
71195;BME280;58908;51.426;7.714;2023-11-19T03:56:32;98933.47;;;11.39;100.00
71195;BME280;58908;51.426;7.714;2023-11-19T03:58:59;98933.69;;;11.36;100.00
71195;BME280;58908;51.426;7.714;2023-11-19T04:01:25;98937.91;;;11.39;100.00
71195;BME280;58908;51.426;7.714;2023-11-19T04:03:51;98943.53;;;11.34;100.00
71195;BME280;58908;51.426;7.714;2023-11-19T04:06:18;98952.88;;;11.38;100.00
71195;BME280;58908;51.426;7.714;2023-11-19T04:08:44;98942.56;;;11.35;100.00
71195;BME280;58908;51.426;7.714;2023-11-19T04:11:12;98958.53;;;11.34;100.00
71195;BME280;58908;51.426;7.714;2023-11-19T04:13:38;98965.66;;;11.44;100.00
71195;BME280;58908;51.426;7.714;2023-11-19T04:16:05;98957.50;;;11.47;100.00
71195;BME280;58908;51.426;7.714;2023-11-19T04:18:32;98960.38;;;11.44;100.00
71195;BME280;58908;51.426;7.714;2023-11-19T04:20:58;98977.84;;;11.34;100.00
71195;BME280;58908;51.426;7.714;2023-11-19T04:23:24;98986.00;;;11.31;100.00
71195;BME280;58908;51.426;7.714;2023-11-19T04:25:51;98991.78;;;11.36;100.00
71195;BME280;58908;51.426;7.714;2023-11-19T04:28:18;98985.28;;;11.29;100.00
71195;BME280;58908;51.426;7.714;2023-11-19T04:30:44;98985.19;;;11.18;100.00
71195;BME280;58908;51.426;7.714;2023-11-19T04:33:11;98985.72;;;11.11;100.00
71195;BME280;58908;51.426;7.714;2023-11-19T04:35:37;98992.31;;;11.05;100.00
71195;BME280;58908;51.426;7.714;2023-11-19T04:38:03;98991.00;;;11.11;100.00
71195;BME280;58908;51.426;7.714;2023-11-19T04:40:30;98979.50;;;11.12;100.00
71195;BME280;58908;51.426;7.714;2023-11-19T04:42:56;98982.16;;;11.12;100.00
71195;BME280;58908;51.426;7.714;2023-11-19T04:45:24;98985.78;;;10.98;100.00
71195;BME280;58908;51.426;7.714;2023-11-19T04:47:50;98988.09;;;11.03;100.00
71195;BME280;58908;51.426;7.714;2023-11-19T04:50:17;98987.13;;;11.04;100.00
71195;BME280;58908;51.426;7.714;2023-11-19T04:52:43;98984.81;;;10.99;100.00
71195;BME280;58908;51.426;7.714;2023-11-19T04:55:12;99001.50;;;11.00;100.00
71195;BME280;58908;51.426;7.714;2023-11-19T04:57:39;99000.66;;;10.99;100.00
71195;BME280;58908;51.426;7.714;2023-11-19T05:00:06;99008.47;;;10.88;100.00
71195;BME280;58908;51.426;7.714;2023-11-19T05:02:34;99010.78;;;10.80;100.00
71195;BME280;58908;51.426;7.714;2023-11-19T05:05:00;99016.81;;;10.82;100.00
71195;BME280;58908;51.426;7.714;2023-11-19T05:07:28;99009.53;;;10.86;100.00
71195;BME280;58908;51.426;7.714;2023-11-19T05:09:55;99000.97;;;10.95;100.00
71195;BME280;58908;51.426;7.714;2023-11-19T05:12:21;99009.06;;;11.04;100.00
71195;BME280;58908;51.426;7.714;2023-11-19T05:14:48;99008.97;;;11.06;100.00
71195;BME280;58908;51.426;7.714;2023-11-19T05:17:15;99020.47;;;11.05;100.00
71195;BME280;58908;51.426;7.714;2023-11-19T05:19:44;99018.69;;;11.05;100.00
71195;BME280;58908;51.426;7.714;2023-11-19T05:22:10;99011.59;;;11.06;100.00
71195;BME280;58908;51.426;7.714;2023-11-19T05:24:37;99015.75;;;10.97;100.00
71195;BME280;58908;51.426;7.714;2023-11-19T05:27:04;99023.25;;;10.91;100.00
71195;BME280;58908;51.426;7.714;2023-11-19T05:29:32;99013.34;;;10.94;100.00
71195;BME280;58908;51.426;7.714;2023-11-19T05:31:58;99011.09;;;11.01;100.00
71195;BME280;58908;51.426;7.714;2023-11-19T05:34:24;99004.16;;;10.87;100.00
71195;BME280;58908;51.426;7.714;2023-11-19T05:36:52;99018.06;;;11.02;100.00
71195;BME280;58908;51.426;7.714;2023-11-19T05:39:19;99015.34;;;10.91;100.00
71195;BME280;58908;51.426;7.714;2023-11-19T05:41:45;99019.53;;;10.93;100.00
71195;BME280;58908;51.426;7.714;2023-11-19T05:44:11;99022.06;;;10.82;100.00
71195;BME280;58908;51.426;7.714;2023-11-19T05:46:38;99037.06;;;10.82;100.00
71195;BME280;58908;51.426;7.714;2023-11-19T05:49:07;99028.22;;;10.83;100.00
71195;BME280;58908;51.426;7.714;2023-11-19T05:51:36;99030.63;;;10.86;100.00
71195;BME280;58908;51.426;7.714;2023-11-19T05:54:04;99028.94;;;10.97;100.00
71195;BME280;58908;51.426;7.714;2023-11-19T05:56:31;99034.13;;;10.86;100.00
71195;BME280;58908;51.426;7.714;2023-11-19T05:58:58;99025.88;;;10.78;100.00
71195;BME280;58908;51.426;7.714;2023-11-19T06:01:25;99043.63;;;10.76;100.00
71195;BME280;58908;51.426;7.714;2023-11-19T06:03:51;99039.63;;;10.71;100.00
71195;BME280;58908;51.426;7.714;2023-11-19T06:06:18;99036.53;;;10.89;100.00
71195;BME280;58908;51.426;7.714;2023-11-19T06:08:44;99037.00;;;10.83;100.00
71195;BME280;58908;51.426;7.714;2023-11-19T06:11:12;99034.53;;;10.80;100.00
71195;BME280;58908;51.426;7.714;2023-11-19T06:13:43;99048.69;;;10.79;100.00
71195;BME280;58908;51.426;7.714;2023-11-19T06:16:09;99044.47;;;10.89;100.00
71195;BME280;58908;51.426;7.714;2023-11-19T06:18:36;99036.63;;;10.88;100.00
71195;BME280;58908;51.426;7.714;2023-11-19T06:21:02;99047.84;;;10.79;100.00
71195;BME280;58908;51.426;7.714;2023-11-19T06:23:29;99041.41;;;10.95;100.00
71195;BME280;58908;51.426;7.714;2023-11-19T06:25:55;99039.28;;;11.00;100.00
71195;BME280;58908;51.426;7.714;2023-11-19T06:28:23;99040.44;;;10.96;100.00
71195;BME280;58908;51.426;7.714;2023-11-19T06:30:49;99039.72;;;10.94;100.00
71195;BME280;58908;51.426;7.714;2023-11-19T06:33:15;99045.09;;;10.93;100.00
71195;BME280;58908;51.426;7.714;2023-11-19T06:35:42;99056.91;;;10.87;100.00
71195;BME280;58908;51.426;7.714;2023-11-19T06:38:08;99048.56;;;10.93;100.00
71195;BME280;58908;51.426;7.714;2023-11-19T06:40:35;99044.03;;;10.95;100.00
71195;BME280;58908;51.426;7.714;2023-11-19T06:43:01;99054.50;;;10.84;100.00
71195;BME280;58908;51.426;7.714;2023-11-19T06:45:29;99055.88;;;10.90;100.00
71195;BME280;58908;51.426;7.714;2023-11-19T06:47:56;99057.53;;;10.78;100.00
71195;BME280;58908;51.426;7.714;2023-11-19T06:50:23;99041.94;;;10.75;100.00
71195;BME280;58908;51.426;7.714;2023-11-19T06:52:50;99048.38;;;10.84;100.00
71195;BME280;58908;51.426;7.714;2023-11-19T06:55:16;99041.59;;;10.92;100.00
71195;BME280;58908;51.426;7.714;2023-11-19T06:57:42;99042.97;;;10.98;100.00
71195;BME280;58908;51.426;7.714;2023-11-19T07:00:09;99047.94;;;10.90;100.00
71195;BME280;58908;51.426;7.714;2023-11-19T07:02:37;99059.78;;;10.84;100.00
71195;BME280;58908;51.426;7.714;2023-11-19T07:05:04;99060.72;;;10.83;100.00
71195;BME280;58908;51.426;7.714;2023-11-19T07:07:30;99064.41;;;10.81;100.00
71195;BME280;58908;51.426;7.714;2023-11-19T07:09:57;99072.19;;;10.82;100.00
71195;BME280;58908;51.426;7.714;2023-11-19T07:12:23;99089.09;;;10.92;100.00
71195;BME280;58908;51.426;7.714;2023-11-19T07:14:51;99076.53;;;10.96;100.00
71195;BME280;58908;51.426;7.714;2023-11-19T07:17:18;99073.78;;;10.85;100.00
71195;BME280;58908;51.426;7.714;2023-11-19T07:19:46;99081.50;;;10.88;100.00
71195;BME280;58908;51.426;7.714;2023-11-19T07:22:13;99076.13;;;10.89;100.00
71195;BME280;58908;51.426;7.714;2023-11-19T07:24:40;99098.50;;;10.84;100.00
71195;BME280;58908;51.426;7.714;2023-11-19T07:27:06;99101.13;;;10.84;100.00
71195;BME280;58908;51.426;7.714;2023-11-19T07:29:33;99092.81;;;10.90;100.00
71195;BME280;58908;51.426;7.714;2023-11-19T07:32:00;99092.16;;;10.86;100.00
71195;BME280;58908;51.426;7.714;2023-11-19T07:34:27;99105.38;;;10.86;100.00
71195;BME280;58908;51.426;7.714;2023-11-19T07:36:55;99097.53;;;10.85;100.00
71195;BME280;58908;51.426;7.714;2023-11-19T07:39:24;99105.88;;;10.91;100.00
71195;BME280;58908;51.426;7.714;2023-11-19T07:41:50;99095.63;;;10.87;100.00
71195;BME280;58908;51.426;7.714;2023-11-19T07:44:17;99101.47;;;10.92;100.00
71195;BME280;58908;51.426;7.714;2023-11-19T07:46:43;99103.13;;;10.80;100.00
71195;BME280;58908;51.426;7.714;2023-11-19T07:49:10;99117.78;;;10.72;100.00
71195;BME280;58908;51.426;7.714;2023-11-19T07:51:36;99100.50;;;10.80;100.00
71195;BME280;58908;51.426;7.714;2023-11-19T07:54:04;99100.19;;;10.72;100.00
71195;BME280;58908;51.426;7.714;2023-11-19T07:56:31;99119.69;;;10.70;100.00
71195;BME280;58908;51.426;7.714;2023-11-19T07:58:57;99117.88;;;10.70;100.00
71195;BME280;58908;51.426;7.714;2023-11-19T08:01:23;99130.25;;;10.82;100.00
71195;BME280;58908;51.426;7.714;2023-11-19T08:03:50;99141.56;;;10.84;100.00
71195;BME280;58908;51.426;7.714;2023-11-19T08:06:16;99136.06;;;10.87;100.00
71195;BME280;58908;51.426;7.714;2023-11-19T08:08:42;99138.28;;;10.81;100.00
71195;BME280;58908;51.426;7.714;2023-11-19T08:11:11;99145.47;;;10.79;100.00
71195;BME280;58908;51.426;7.714;2023-11-19T08:13:37;99145.34;;;10.80;100.00
71195;BME280;58908;51.426;7.714;2023-11-19T08:16:03;99139.34;;;10.91;100.00
71195;BME280;58908;51.426;7.714;2023-11-19T08:18:30;99143.44;;;10.82;100.00
71195;BME280;58908;51.426;7.714;2023-11-19T08:20:57;99136.91;;;10.88;100.00
71195;BME280;58908;51.426;7.714;2023-11-19T08:23:25;99146.09;;;10.95;100.00
71195;BME280;58908;51.426;7.714;2023-11-19T08:25:53;99140.47;;;10.87;100.00
71195;BME280;58908;51.426;7.714;2023-11-19T08:28:21;99156.44;;;10.98;100.00
71195;BME280;58908;51.426;7.714;2023-11-19T08:30:48;99153.47;;;11.02;100.00
71195;BME280;58908;51.426;7.714;2023-11-19T08:33:15;99154.66;;;10.98;100.00
71195;BME280;58908;51.426;7.714;2023-11-19T08:35:42;99156.75;;;11.06;100.00
71195;BME280;58908;51.426;7.714;2023-11-19T08:38:08;99159.94;;;10.98;100.00
71195;BME280;58908;51.426;7.714;2023-11-19T08:40:34;99159.28;;;10.95;100.00
71195;BME280;58908;51.426;7.714;2023-11-19T08:43:00;99156.25;;;11.01;100.00
71195;BME280;58908;51.426;7.714;2023-11-19T08:45:28;99155.28;;;10.89;100.00
71195;BME280;58908;51.426;7.714;2023-11-19T08:47:54;99154.22;;;10.92;100.00
71195;BME280;58908;51.426;7.714;2023-11-19T08:50:21;99165.81;;;10.89;100.00
71195;BME280;58908;51.426;7.714;2023-11-19T08:52:47;99157.94;;;11.02;100.00
71195;BME280;58908;51.426;7.714;2023-11-19T08:55:14;99171.66;;;11.07;100.00
71195;BME280;58908;51.426;7.714;2023-11-19T08:57:40;99166.28;;;11.08;100.00
71195;BME280;58908;51.426;7.714;2023-11-19T09:00:07;99158.34;;;11.08;100.00
71195;BME280;58908;51.426;7.714;2023-11-19T09:02:35;99160.25;;;11.06;100.00
71195;BME280;58908;51.426;7.714;2023-11-19T09:05:02;99160.34;;;11.05;100.00
71195;BME280;58908;51.426;7.714;2023-11-19T09:07:28;99165.13;;;11.25;100.00
71195;BME280;58908;51.426;7.714;2023-11-19T09:09:54;99146.94;;;11.33;100.00
71195;BME280;58908;51.426;7.714;2023-11-19T09:12:21;99142.91;;;11.52;100.00
71195;BME280;58908;51.426;7.714;2023-11-19T09:14:47;99150.75;;;11.29;100.00
71195;BME280;58908;51.426;7.714;2023-11-19T09:17:14;99151.16;;;11.35;100.00
71195;BME280;58908;51.426;7.714;2023-11-19T09:19:42;99145.06;;;11.35;100.00
71195;BME280;58908;51.426;7.714;2023-11-19T09:22:08;99139.59;;;11.86;100.00
71195;BME280;58908;51.426;7.714;2023-11-19T09:24:34;99124.75;;;12.19;100.00
71195;BME280;58908;51.426;7.714;2023-11-19T09:27:00;99143.53;;;12.04;100.00
71195;BME280;58908;51.426;7.714;2023-11-19T09:29:27;99149.44;;;11.72;100.00
71195;BME280;58908;51.426;7.714;2023-11-19T09:31:53;99158.56;;;11.68;100.00
71195;BME280;58908;51.426;7.714;2023-11-19T09:34:19;99160.78;;;11.61;100.00
71195;BME280;58908;51.426;7.714;2023-11-19T09:36:47;99156.25;;;11.63;100.00
71195;BME280;58908;51.426;7.714;2023-11-19T09:39:13;99159.72;;;11.64;100.00
71195;BME280;58908;51.426;7.714;2023-11-19T09:41:42;99140.66;;;11.71;100.00
71195;BME280;58908;51.426;7.714;2023-11-19T09:44:10;99140.66;;;11.71;100.00
71195;BME280;58908;51.426;7.714;2023-11-19T09:46:37;99160.88;;;11.72;100.00
71195;BME280;58908;51.426;7.714;2023-11-19T09:49:04;99144.59;;;11.53;100.00
71195;BME280;58908;51.426;7.714;2023-11-19T09:51:32;99143.53;;;11.68;100.00
71195;BME280;58908;51.426;7.714;2023-11-19T09:54:00;99132.53;;;11.74;100.00
71195;BME280;58908;51.426;7.714;2023-11-19T09:56:26;99136.75;;;11.77;100.00
71195;BME280;58908;51.426;7.714;2023-11-19T09:58:54;99129.13;;;11.85;100.00
71195;BME280;58908;51.426;7.714;2023-11-19T10:01:20;99124.69;;;11.85;100.00
71195;BME280;58908;51.426;7.714;2023-11-19T10:03:47;99137.03;;;11.85;100.00
71195;BME280;58908;51.426;7.714;2023-11-19T10:06:14;99134.56;;;11.94;100.00
71195;BME280;58908;51.426;7.714;2023-11-19T10:08:41;99132.34;;;12.00;100.00
71195;BME280;58908;51.426;7.714;2023-11-19T10:11:09;99132.25;;;12.25;100.00
71195;BME280;58908;51.426;7.714;2023-11-19T10:13:37;99111.84;;;12.15;100.00
71195;BME280;58908;51.426;7.714;2023-11-19T10:16:04;99129.47;;;12.03;100.00
71195;BME280;58908;51.426;7.714;2023-11-19T10:18:30;99144.69;;;12.12;100.00
71195;BME280;58908;51.426;7.714;2023-11-19T10:21:02;99125.22;;;12.13;100.00
71195;BME280;58908;51.426;7.714;2023-11-19T10:23:29;99117.38;;;12.12;100.00
71195;BME280;58908;51.426;7.714;2023-11-19T10:25:55;99114.06;;;11.97;100.00
71195;BME280;58908;51.426;7.714;2023-11-19T10:28:29;99124.28;;;11.79;100.00
71195;BME280;58908;51.426;7.714;2023-11-19T10:31:05;99116.38;;;11.66;100.00
71195;BME280;58908;51.426;7.714;2023-11-19T10:33:32;99127.28;;;11.62;100.00
71195;BME280;58908;51.426;7.714;2023-11-19T10:35:58;99134.03;;;11.53;100.00
71195;BME280;58908;51.426;7.714;2023-11-19T10:38:25;99132.97;;;11.56;100.00
71195;BME280;58908;51.426;7.714;2023-11-19T10:40:52;99132.44;;;11.51;100.00
71195;BME280;58908;51.426;7.714;2023-11-19T10:43:19;99127.69;;;11.56;100.00
71195;BME280;58908;51.426;7.714;2023-11-19T10:45:48;99133.09;;;11.67;100.00
71195;BME280;58908;51.426;7.714;2023-11-19T10:48:15;99128.47;;;11.81;100.00
71195;BME280;58908;51.426;7.714;2023-11-19T10:50:42;99118.16;;;11.78;100.00
71195;BME280;58908;51.426;7.714;2023-11-19T10:53:09;99113.78;;;11.90;100.00
71195;BME280;58908;51.426;7.714;2023-11-19T10:55:36;99106.34;;;11.94;100.00
71195;BME280;58908;51.426;7.714;2023-11-19T10:58:04;99104.06;;;12.13;100.00
71195;BME280;58908;51.426;7.714;2023-11-19T11:00:33;99103.34;;;12.11;100.00
71195;BME280;58908;51.426;7.714;2023-11-19T11:03:01;99096.13;;;12.13;100.00
71195;BME280;58908;51.426;7.714;2023-11-19T11:05:29;99109.06;;;12.05;100.00
71195;BME280;58908;51.426;7.714;2023-11-19T11:07:58;99100.34;;;11.93;100.00
71195;BME280;58908;51.426;7.714;2023-11-19T11:10:25;99128.16;;;11.86;100.00
71195;BME280;58908;51.426;7.714;2023-11-19T11:12:51;99110.28;;;11.89;100.00
71195;BME280;58908;51.426;7.714;2023-11-19T11:15:22;99098.25;;;11.85;100.00
71195;BME280;58908;51.426;7.714;2023-11-19T11:17:50;99111.25;;;11.88;100.00
71195;BME280;58908;51.426;7.714;2023-11-19T11:20:20;99115.28;;;11.81;100.00
71195;BME280;58908;51.426;7.714;2023-11-19T11:22:49;99115.63;;;12.00;100.00
71195;BME280;58908;51.426;7.714;2023-11-19T11:25:28;99104.09;;;12.01;100.00
71195;BME280;58908;51.426;7.714;2023-11-19T11:28:14;99100.97;;;11.96;100.00
71195;BME280;58908;51.426;7.714;2023-11-19T11:30:46;99107.75;;;11.88;100.00
71195;BME280;58908;51.426;7.714;2023-11-19T11:33:21;99099.00;;;11.87;100.00
71195;BME280;58908;51.426;7.714;2023-11-19T11:35:53;99093.88;;;11.96;100.00
71195;BME280;58908;51.426;7.714;2023-11-19T11:38:21;99096.75;;;11.93;100.00
71195;BME280;58908;51.426;7.714;2023-11-19T11:43:45;99099.09;;;12.09;100.00
71195;BME280;58908;51.426;7.714;2023-11-19T11:48:53;99106.84;;;11.99;100.00
71195;BME280;58908;51.426;7.714;2023-11-19T11:51:22;99117.66;;;11.96;100.00
71195;BME280;58908;51.426;7.714;2023-11-19T11:54:08;99110.44;;;11.98;100.00
71195;BME280;58908;51.426;7.714;2023-11-19T11:56:36;99104.56;;;11.95;100.00
71195;BME280;58908;51.426;7.714;2023-11-19T11:59:03;99096.06;;;12.02;100.00
71195;BME280;58908;51.426;7.714;2023-11-19T12:01:29;99086.72;;;12.09;100.00
71195;BME280;58908;51.426;7.714;2023-11-19T12:03:55;99083.06;;;12.23;100.00
71195;BME280;58908;51.426;7.714;2023-11-19T12:06:24;99069.91;;;12.45;100.00
71195;BME280;58908;51.426;7.714;2023-11-19T12:08:52;99054.03;;;12.45;100.00
71195;BME280;58908;51.426;7.714;2023-11-19T12:11:25;99050.78;;;12.41;100.00
71195;BME280;58908;51.426;7.714;2023-11-19T12:13:55;99056.63;;;12.23;100.00
71195;BME280;58908;51.426;7.714;2023-11-19T12:16:23;99051.91;;;12.15;100.00
71195;BME280;58908;51.426;7.714;2023-11-19T12:18:49;99043.25;;;12.13;100.00
71195;BME280;58908;51.426;7.714;2023-11-19T12:21:29;99047.25;;;12.19;100.00
71195;BME280;58908;51.426;7.714;2023-11-19T12:23:57;99047.44;;;12.16;100.00
71195;BME280;58908;51.426;7.714;2023-11-19T12:26:35;99045.34;;;12.32;100.00
71195;BME280;58908;51.426;7.714;2023-11-19T12:29:02;99059.47;;;12.54;100.00
71195;BME280;58908;51.426;7.714;2023-11-19T12:31:31;99062.97;;;12.55;100.00
71195;BME280;58908;51.426;7.714;2023-11-19T12:33:57;99059.84;;;12.50;100.00
71195;BME280;58908;51.426;7.714;2023-11-19T12:36:23;99055.28;;;12.52;100.00
71195;BME280;58908;51.426;7.714;2023-11-19T12:38:51;99049.00;;;12.42;100.00
71195;BME280;58908;51.426;7.714;2023-11-19T12:41:17;99042.59;;;12.33;100.00
71195;BME280;58908;51.426;7.714;2023-11-19T12:43:47;99053.69;;;12.15;100.00
71195;BME280;58908;51.426;7.714;2023-11-19T12:46:16;99043.41;;;11.99;100.00
71195;BME280;58908;51.426;7.714;2023-11-19T12:48:44;99058.16;;;11.91;100.00
71195;BME280;58908;51.426;7.714;2023-11-19T12:51:10;99054.34;;;11.95;100.00
71195;BME280;58908;51.426;7.714;2023-11-19T12:53:46;99047.88;;;11.99;100.00
71195;BME280;58908;51.426;7.714;2023-11-19T12:56:15;99055.66;;;11.90;100.00